createdAt,value
2019-06-26T00:00:18.834Z,58.66
2019-06-26T00:02:47.271Z,58.95
2019-06-26T00:05:15.742Z,58.95
2019-06-26T00:07:44.177Z,58.51
2019-06-26T00:10:15.724Z,58.79
2019-06-26T00:12:44.833Z,58.35
2019-06-26T00:15:14.586Z,58.68
2019-06-26T00:17:43.024Z,58.62
2019-06-26T00:20:11.972Z,58.71
2019-06-26T00:22:40.387Z,58.56
2019-06-26T00:25:09.860Z,58.83
2019-06-26T00:27:38.306Z,59.13
2019-06-26T00:30:11.397Z,59.01
2019-06-26T00:32:39.823Z,59.06
2019-06-26T00:35:08.266Z,59.10
2019-06-26T00:37:36.679Z,58.47
2019-06-26T00:40:06.649Z,58.59
2019-06-26T00:42:35.297Z,58.88
2019-06-26T00:45:05.539Z,58.88
2019-06-26T00:47:34.045Z,58.86
2019-06-26T00:50:02.543Z,59.29
2019-06-26T00:52:30.965Z,59.49
2019-06-26T00:54:59.384Z,59.59
2019-06-26T00:57:27.816Z,59.58
2019-06-26T00:59:56.233Z,59.71
2019-06-26T01:02:24.667Z,59.68
2019-06-26T01:04:54.725Z,59.71
2019-06-26T01:07:23.163Z,59.80
2019-06-26T01:09:51.562Z,59.83
2019-06-26T01:12:19.979Z,59.80
2019-06-26T01:14:48.420Z,59.48
2019-06-26T01:17:16.834Z,59.32
2019-06-26T01:19:45.292Z,59.35
2019-06-26T01:22:13.718Z,59.11
2019-06-26T01:24:42.130Z,58.76
2019-06-26T01:27:10.579Z,58.29
2019-06-26T01:29:38.985Z,58.18
2019-06-26T01:32:07.464Z,58.81
2019-06-26T01:34:35.895Z,58.79
2019-06-26T01:37:04.309Z,58.56
2019-06-26T01:39:32.763Z,58.35
2019-06-26T01:42:01.202Z,58.41
2019-06-26T01:44:29.678Z,58.29
2019-06-26T01:46:58.153Z,58.28
2019-06-26T01:49:26.546Z,58.58
2019-06-26T01:51:54.970Z,58.34
2019-06-26T01:54:23.424Z,58.29
2019-06-26T01:56:51.837Z,58.25
2019-06-26T01:59:20.249Z,58.35
2019-06-26T02:01:48.673Z,58.37
2019-06-26T02:04:17.090Z,58.25
2019-06-26T02:06:45.528Z,58.29
2019-06-26T02:09:13.938Z,58.39
2019-06-26T02:11:42.390Z,58.59
2019-06-26T02:14:10.792Z,58.59
2019-06-26T02:16:39.218Z,59.20
2019-06-26T02:19:09.285Z,59.08
2019-06-26T02:21:37.696Z,59.26
2019-06-26T02:24:06.144Z,59.41
2019-06-26T02:26:34.564Z,59.58
2019-06-26T02:29:03.066Z,59.81
2019-06-26T02:31:31.469Z,60.02
2019-06-26T02:33:59.926Z,59.85
2019-06-26T02:36:28.345Z,59.79
2019-06-26T02:38:56.787Z,59.11
2019-06-26T02:41:25.267Z,59.31
2019-06-26T02:43:53.863Z,59.91
2019-06-26T02:46:22.269Z,59.88
2019-06-26T02:48:50.660Z,60.33
2019-06-26T02:51:19.110Z,60.08
2019-06-26T02:53:47.552Z,60.35
2019-06-26T02:56:15.976Z,60.83
2019-06-26T02:58:44.400Z,60.85
2019-06-26T03:01:12.858Z,60.59
2019-06-26T03:03:41.269Z,60.21
2019-06-26T03:06:09.716Z,60.45
2019-06-26T03:08:38.126Z,60.36
2019-06-26T03:11:06.566Z,61.16
2019-06-26T03:13:34.987Z,61.05
2019-06-26T03:16:03.437Z,61.20
2019-06-26T03:18:31.864Z,61.64
2019-06-26T03:21:00.303Z,61.70
2019-06-26T03:23:28.720Z,60.92
2019-06-26T03:25:57.132Z,60.97
2019-06-26T03:28:25.586Z,61.38
2019-06-26T03:30:54.054Z,61.36
2019-06-26T03:33:22.489Z,61.25
2019-06-26T03:35:50.929Z,61.31
2019-06-26T03:38:19.336Z,61.00
2019-06-26T03:40:47.746Z,61.25
2019-06-26T03:43:16.181Z,61.54
2019-06-26T03:45:44.660Z,61.53
2019-06-26T03:48:13.100Z,61.98
2019-06-26T03:50:41.543Z,61.71
2019-06-26T03:53:10.033Z,62.01
2019-06-26T03:55:38.470Z,61.72
2019-06-26T03:58:06.925Z,61.61
2019-06-26T04:00:42.980Z,61.94
2019-06-26T04:03:11.582Z,62.22
2019-06-26T04:05:40.003Z,61.93
2019-06-26T04:08:08.498Z,62.02
2019-06-26T04:10:37.033Z,61.71
2019-06-26T04:13:05.648Z,61.66
2019-06-26T04:15:42.162Z,61.69
2019-06-26T04:18:04.615Z,61.69
2019-06-26T04:20:33.059Z,61.82
2019-06-26T04:23:01.495Z,62.08
2019-06-26T04:25:29.977Z,62.49
2019-06-26T04:27:58.392Z,62.47
2019-06-26T04:30:26.841Z,62.07
2019-06-26T04:32:55.275Z,61.74
2019-06-26T04:35:23.687Z,61.86
2019-06-26T04:37:52.316Z,61.75
2019-06-26T04:40:20.906Z,62.06
2019-06-26T04:42:49.340Z,62.11
2019-06-26T04:45:18.589Z,62.24
2019-06-26T04:47:47.284Z,62.48
2019-06-26T04:50:16.439Z,62.48
2019-06-26T04:52:44.881Z,62.57
2019-06-26T04:55:13.976Z,62.49
2019-06-26T04:57:42.391Z,62.65
2019-06-26T05:00:11.781Z,62.79
2019-06-26T05:02:40.204Z,62.68
2019-06-26T05:05:09.271Z,62.81
2019-06-26T05:07:37.685Z,62.80
2019-06-26T05:10:09.165Z,62.75
2019-06-26T05:12:37.588Z,62.88
2019-06-26T05:15:08.076Z,62.85
2019-06-26T05:17:36.590Z,62.68
2019-06-26T05:20:09.973Z,62.67
2019-06-26T05:22:38.342Z,62.77
2019-06-26T05:25:07.910Z,62.74
2019-06-26T05:27:36.704Z,62.43
2019-06-26T05:30:10.234Z,62.57
2019-06-26T05:32:38.911Z,62.74
2019-06-26T05:35:11.499Z,62.44
2019-06-26T05:37:40.095Z,62.20
2019-06-26T05:40:13.785Z,61.80
2019-06-26T05:42:42.237Z,61.53
2019-06-26T05:45:12.864Z,61.57
2019-06-26T05:47:41.378Z,61.34
2019-06-26T05:50:11.977Z,61.27
2019-06-26T05:52:42.757Z,61.45
2019-06-26T05:55:11.497Z,61.21
2019-06-26T05:57:41.910Z,61.03
2019-06-26T06:00:11.870Z,60.35
2019-06-26T06:02:40.316Z,60.45
2019-06-26T06:05:09.671Z,60.35
2019-06-26T06:07:38.164Z,60.20
2019-06-26T06:10:07.979Z,58.87
2019-06-26T06:12:36.486Z,58.21
2019-06-26T06:15:08.615Z,58.65
2019-06-26T06:17:37.206Z,58.84
2019-06-26T06:20:07.046Z,58.87
2019-06-26T06:22:35.558Z,59.30
2019-06-26T06:25:05.031Z,58.21
2019-06-26T06:27:33.458Z,58.26
2019-06-26T06:30:01.869Z,59.54
2019-06-26T06:32:30.324Z,59.58
2019-06-26T06:34:58.774Z,59.33
2019-06-26T06:37:27.174Z,59.49
2019-06-26T06:39:55.609Z,58.40
2019-06-26T06:42:24.073Z,59.41
2019-06-26T06:44:52.563Z,58.61
2019-06-26T06:47:20.996Z,58.16
2019-06-26T06:49:49.407Z,58.43
2019-06-26T06:52:17.809Z,58.03
2019-06-26T06:54:46.265Z,58.08
2019-06-26T06:57:14.669Z,58.28
2019-06-26T06:59:43.088Z,57.88
2019-06-26T07:02:11.533Z,58.08
2019-06-26T07:04:39.947Z,57.51
2019-06-26T07:07:08.353Z,57.47
2019-06-26T07:09:36.782Z,57.81
2019-06-26T07:12:05.442Z,57.40
2019-06-26T07:14:33.881Z,57.35
2019-06-26T07:17:02.319Z,56.91
2019-06-26T07:19:30.750Z,56.44
2019-06-26T07:21:59.161Z,56.14
2019-06-26T07:24:27.611Z,56.13
2019-06-26T07:26:56.024Z,56.22
2019-06-26T07:29:25.543Z,55.77
2019-06-26T07:31:54.010Z,56.15
2019-06-26T07:34:22.657Z,56.51
2019-06-26T07:36:51.069Z,55.84
2019-06-26T07:39:19.520Z,55.76
2019-06-26T07:41:47.949Z,56.78
2019-06-26T07:44:18.345Z,55.90
2019-06-26T07:46:46.844Z,55.95
2019-06-26T07:49:15.289Z,56.03
2019-06-26T07:51:43.703Z,55.87
2019-06-26T07:54:12.119Z,55.76
2019-06-26T07:56:40.560Z,55.98
2019-06-26T07:59:08.951Z,55.76
2019-06-26T08:01:37.447Z,55.62
2019-06-26T08:04:05.781Z,55.66
2019-06-26T08:06:34.235Z,55.35
2019-06-26T08:09:02.712Z,55.27
2019-06-26T08:11:32.726Z,55.04
2019-06-26T08:14:01.145Z,55.52
2019-06-26T08:16:29.548Z,55.28
2019-06-26T08:18:57.953Z,55.67
2019-06-26T08:21:26.385Z,54.96
2019-06-26T08:23:54.842Z,54.78
2019-06-26T08:26:23.273Z,54.93
2019-06-26T08:28:51.694Z,55.68
2019-06-26T08:31:20.108Z,55.14
2019-06-26T08:33:48.543Z,54.85
2019-06-26T08:36:16.954Z,54.67
2019-06-26T08:38:45.437Z,54.32
2019-06-26T08:41:13.945Z,54.50
2019-06-26T08:43:42.347Z,54.03
2019-06-26T08:46:10.756Z,53.53
2019-06-26T08:48:40.731Z,53.39
2019-06-26T08:51:09.297Z,53.61
2019-06-26T08:53:37.737Z,53.55
2019-06-26T08:56:06.308Z,53.41
2019-06-26T08:58:34.877Z,53.31
2019-06-26T09:01:03.333Z,53.04
2019-06-26T09:03:31.706Z,52.31
2019-06-26T09:06:00.315Z,52.16
2019-06-26T09:08:29.155Z,52.33
2019-06-26T09:10:57.628Z,52.35
2019-06-26T09:13:26.041Z,52.87
2019-06-26T09:15:54.439Z,53.08
2019-06-26T09:18:34.932Z,52.76
2019-06-26T09:20:53.037Z,52.93
2019-06-26T09:23:21.448Z,52.61
2019-06-26T09:25:50.689Z,53.05
2019-06-26T09:28:19.144Z,53.38
2019-06-26T09:30:47.580Z,53.52
2019-06-26T09:33:18.999Z,53.38
2019-06-26T09:35:47.548Z,53.56
2019-06-26T09:38:16.031Z,53.24
2019-06-26T09:40:44.468Z,53.38
2019-06-26T09:43:13.041Z,53.65
2019-06-26T09:45:41.586Z,53.55
2019-06-26T09:48:10.062Z,53.37
2019-06-26T09:50:38.542Z,53.26
2019-06-26T09:53:07.185Z,53.71
2019-06-26T09:55:35.585Z,54.07
2019-06-26T09:58:04.086Z,53.41
2019-06-26T10:00:32.832Z,53.04
2019-06-26T10:03:02.524Z,53.15
2019-06-26T10:05:30.909Z,51.54
2019-06-26T10:07:59.377Z,51.96
2019-06-26T10:10:27.877Z,52.55
2019-06-26T10:12:56.289Z,52.74
2019-06-26T10:15:24.921Z,51.92
2019-06-26T10:17:53.330Z,51.93
2019-06-26T10:20:21.953Z,52.19
2019-06-26T10:22:50.422Z,51.41
2019-06-26T10:25:19.076Z,52.26
2019-06-26T10:27:47.561Z,51.76
2019-06-26T10:30:17.317Z,51.59
2019-06-26T10:32:45.781Z,51.37
2019-06-26T10:35:14.806Z,51.15
2019-06-26T10:37:43.228Z,51.19
2019-06-26T10:40:15.834Z,50.81
2019-06-26T10:42:42.080Z,51.12
2019-06-26T10:45:11.085Z,51.31
2019-06-26T10:47:40.114Z,50.02
2019-06-26T10:50:09.042Z,49.62
2019-06-26T10:52:37.632Z,49.60
2019-06-26T10:55:07.491Z,50.07
2019-06-26T10:57:36.290Z,50.25
2019-06-26T11:00:10.013Z,50.29
2019-06-26T11:02:38.607Z,50.41
2019-06-26T11:05:08.360Z,50.29
2019-06-26T11:07:37.122Z,49.80
2019-06-26T11:10:09.855Z,49.28
2019-06-26T11:12:38.411Z,49.44
2019-06-26T11:15:08.345Z,49.30
2019-06-26T11:17:37.529Z,49.23
2019-06-26T11:20:08.123Z,48.99
2019-06-26T11:22:36.833Z,48.39
2019-06-26T11:25:09.583Z,48.65
2019-06-26T11:27:38.013Z,47.86
2019-06-26T11:30:11.338Z,47.69
2019-06-26T11:32:39.771Z,47.65
2019-06-26T11:35:09.379Z,47.61
2019-06-26T11:37:38.007Z,45.81
2019-06-26T11:40:07.559Z,43.15
2019-06-26T11:42:36.123Z,42.67
2019-06-26T11:45:07.507Z,42.63
2019-06-26T11:47:36.244Z,42.33
2019-06-26T11:50:09.259Z,42.93
2019-06-26T11:52:37.975Z,42.96
2019-06-26T11:55:08.930Z,42.97
2019-06-26T11:57:38.223Z,43.25
2019-06-26T12:00:18.284Z,42.40
2019-06-26T12:02:51.875Z,43.60
2019-06-26T12:05:22.363Z,43.28
2019-06-26T12:07:50.787Z,42.92
2019-06-26T12:10:19.739Z,42.83
2019-06-26T12:12:48.176Z,43.14
2019-06-26T12:15:17.995Z,43.28
2019-06-26T12:17:46.424Z,43.25
2019-06-26T12:20:19.300Z,42.69
2019-06-26T12:22:45.475Z,42.86
2019-06-26T12:25:14.125Z,43.08
2019-06-26T12:27:42.706Z,42.55
2019-06-26T12:30:11.518Z,42.79
2019-06-26T12:32:42.709Z,42.96
2019-06-26T12:35:10.898Z,42.53
2019-06-26T12:37:39.345Z,42.14
2019-06-26T12:40:08.357Z,41.28
2019-06-26T12:42:36.912Z,42.06
2019-06-26T12:45:07.374Z,40.95
2019-06-26T12:47:35.890Z,40.33
2019-06-26T12:50:06.750Z,40.27
2019-06-26T12:52:35.169Z,39.60
2019-06-26T12:55:05.053Z,39.23
2019-06-26T12:57:33.560Z,40.10
2019-06-26T13:00:02.812Z,41.32
2019-06-26T13:02:31.386Z,41.42
2019-06-26T13:04:59.915Z,41.39
2019-06-26T13:07:29.847Z,40.61
2019-06-26T13:10:09.185Z,41.21
2019-06-26T13:12:40.315Z,39.85
2019-06-26T13:15:11.948Z,39.42
2019-06-26T13:17:46.969Z,40.67
2019-06-26T13:20:20.975Z,40.47
2019-06-26T13:22:54.166Z,40.40
2019-06-26T13:25:28.425Z,40.82
2019-06-26T13:28:03.558Z,40.52
2019-06-26T13:30:41.010Z,41.12
2019-06-26T13:33:11.954Z,41.36
2019-06-26T13:35:44.338Z,41.50
2019-06-26T13:38:14.782Z,41.44
2019-06-26T13:40:46.487Z,40.13
2019-06-26T13:43:18.833Z,40.60
2019-06-26T13:45:49.558Z,40.71
2019-06-26T13:48:17.982Z,40.63
2019-06-26T13:50:46.557Z,40.29
2019-06-26T13:53:15.040Z,38.92
2019-06-26T13:55:43.523Z,39.88
2019-06-26T13:58:12.106Z,40.36
2019-06-26T14:00:40.506Z,39.56
2019-06-26T14:03:08.997Z,39.79
2019-06-26T14:05:37.425Z,40.80
2019-06-26T14:08:05.872Z,40.96
2019-06-26T14:10:34.319Z,41.39
2019-06-26T14:13:02.819Z,41.54
2019-06-26T14:15:31.257Z,41.75
2019-06-26T14:17:59.674Z,41.30
2019-06-26T14:20:28.114Z,42.02
2019-06-26T14:22:56.562Z,41.29
2019-06-26T14:25:24.975Z,42.13
2019-06-26T14:27:53.503Z,40.89
2019-06-26T14:30:22.368Z,41.66
2019-06-26T14:32:50.849Z,40.87
2019-06-26T14:35:21.547Z,39.89
2019-06-26T14:37:49.980Z,38.38
2019-06-26T14:40:18.488Z,38.23
2019-06-26T14:42:46.924Z,40.17
2019-06-26T14:45:16.305Z,40.34
2019-06-26T14:47:44.736Z,38.41
2019-06-26T14:50:13.575Z,40.69
2019-06-26T14:52:45.685Z,41.16
2019-06-26T14:55:12.527Z,41.54
2019-06-26T14:57:40.948Z,41.43
2019-06-26T15:00:10.551Z,40.12
2019-06-26T15:02:39.335Z,40.71
2019-06-26T15:05:08.343Z,37.15
2019-06-26T15:07:36.824Z,39.85
2019-06-26T15:10:08.873Z,39.95
2019-06-26T15:12:37.455Z,39.27
2019-06-26T15:15:06.696Z,40.71
2019-06-26T15:17:35.177Z,41.76
2019-06-26T15:20:04.659Z,41.16
2019-06-26T15:22:33.108Z,40.25
2019-06-26T15:25:01.610Z,42.32
2019-06-26T15:27:30.036Z,42.23
2019-06-26T15:29:58.459Z,42.43
2019-06-26T15:32:26.889Z,42.53
2019-06-26T15:34:55.341Z,39.88
2019-06-26T15:37:24.126Z,40.51
2019-06-26T15:39:52.557Z,41.21
2019-06-26T15:42:21.079Z,40.61
2019-06-26T15:44:49.498Z,41.10
2019-06-26T15:47:17.935Z,42.35
2019-06-26T15:49:46.347Z,41.74
2019-06-26T15:52:15.632Z,42.47
2019-06-26T15:54:44.192Z,42.21
2019-06-26T15:57:13.445Z,42.54
2019-06-26T15:59:41.864Z,41.38
2019-06-26T16:02:10.430Z,42.52
2019-06-26T16:04:38.888Z,42.61
2019-06-26T16:07:07.399Z,43.36
2019-06-26T16:09:35.861Z,38.06
2019-06-26T16:12:04.372Z,40.14
2019-06-26T16:14:32.823Z,41.26
2019-06-26T16:17:02.905Z,41.40
2019-06-26T16:19:31.375Z,42.30
2019-06-26T16:21:59.786Z,41.69
2019-06-26T16:24:30.235Z,41.11
2019-06-26T16:26:58.650Z,38.97
2019-06-26T16:29:27.098Z,40.87
2019-06-26T16:31:55.509Z,41.83
2019-06-26T16:34:23.947Z,43.12
2019-06-26T16:36:52.384Z,42.17
2019-06-26T16:39:22.426Z,42.94
2019-06-26T16:41:50.875Z,42.53
2019-06-26T16:44:19.292Z,39.15
2019-06-26T16:46:47.838Z,41.85
2019-06-26T16:49:16.268Z,41.49
2019-06-26T16:51:44.713Z,43.01
2019-06-26T16:54:13.140Z,43.06
2019-06-26T16:56:41.596Z,40.90
2019-06-26T16:59:10.429Z,42.34
2019-06-26T17:01:38.829Z,43.02
2019-06-26T17:04:07.312Z,42.76
2019-06-26T17:06:35.754Z,43.10
2019-06-26T17:09:06.064Z,43.07
2019-06-26T17:11:34.495Z,42.98
2019-06-26T17:14:03.026Z,43.74
2019-06-26T17:16:31.429Z,42.39
2019-06-26T17:18:59.866Z,42.00
2019-06-26T17:21:28.303Z,42.97
2019-06-26T17:23:56.734Z,43.10
2019-06-26T17:26:25.168Z,42.31
2019-06-26T17:28:53.605Z,43.06
2019-06-26T17:31:22.073Z,42.70
2019-06-26T17:33:50.479Z,42.97
2019-06-26T17:36:18.900Z,43.62
2019-06-26T17:38:47.402Z,42.76
2019-06-26T17:41:15.829Z,44.32
2019-06-26T17:43:44.236Z,44.18
2019-06-26T17:46:12.685Z,44.42
2019-06-26T17:48:41.086Z,44.91
2019-06-26T17:51:09.611Z,45.13
2019-06-26T17:53:37.998Z,45.34
2019-06-26T17:56:06.523Z,45.04
2019-06-26T17:58:34.936Z,45.37
2019-06-26T18:01:03.372Z,44.64
2019-06-26T18:03:31.825Z,44.74
2019-06-26T18:06:00.310Z,45.42
2019-06-26T18:08:31.108Z,45.79
2019-06-26T18:11:01.053Z,45.76
2019-06-26T18:13:31.111Z,46.00
2019-06-26T18:16:01.210Z,46.09
2019-06-26T18:18:31.346Z,45.72
2019-06-26T18:21:01.992Z,45.72
2019-06-26T18:23:37.933Z,44.06
2019-06-26T18:26:13.045Z,44.14
2019-06-26T18:28:36.284Z,44.97
2019-06-26T18:31:05.613Z,45.38
2019-06-26T18:33:35.856Z,45.16
2019-06-26T18:36:06.014Z,45.11
2019-06-26T18:38:35.730Z,44.26
2019-06-26T18:41:07.346Z,44.15
2019-06-26T18:43:37.549Z,44.18
2019-06-26T18:46:08.931Z,44.27
2019-06-26T18:48:38.935Z,44.31
2019-06-26T18:51:09.084Z,44.34
2019-06-26T18:53:52.663Z,44.48
2019-06-26T18:56:12.675Z,44.64
2019-06-26T18:58:42.699Z,44.64
2019-06-26T19:01:13.269Z,44.74
2019-06-26T19:03:43.885Z,44.85
2019-06-26T19:06:13.986Z,44.87
2019-06-26T19:08:43.812Z,45.06
2019-06-26T19:11:14.522Z,45.30
2019-06-26T19:13:43.809Z,45.53
2019-06-26T19:16:15.688Z,46.02
2019-06-26T19:18:46.033Z,46.48
2019-06-26T19:21:19.046Z,46.23
2019-06-26T19:23:51.507Z,46.38
2019-06-26T19:26:23.046Z,46.58
2019-06-26T19:28:54.404Z,46.66
2019-06-26T19:31:25.682Z,47.04
2019-06-26T19:33:56.158Z,47.17
2019-06-26T19:36:31.038Z,47.39
2019-06-26T19:39:02.739Z,47.48
2019-06-26T19:41:32.723Z,47.60
2019-06-26T19:44:04.411Z,48.27
2019-06-26T19:46:34.301Z,48.20
2019-06-26T19:49:06.968Z,48.18
2019-06-26T19:51:37.132Z,49.14
2019-06-26T19:54:08.298Z,49.11
2019-06-26T19:56:39.083Z,48.95
2019-06-26T19:59:10.124Z,49.34
2019-06-26T20:01:40.605Z,49.96
2019-06-26T20:04:13.986Z,49.70
2019-06-26T20:06:46.974Z,50.72
2019-06-26T20:09:15.706Z,50.15
2019-06-26T20:11:44.134Z,50.20
2019-06-26T20:14:12.572Z,51.04
2019-06-26T20:16:41.058Z,50.41
2019-06-26T20:19:09.760Z,50.49
2019-06-26T20:21:38.970Z,51.12
2019-06-26T20:24:08.260Z,51.49
2019-06-26T20:26:37.008Z,51.47
2019-06-26T20:29:05.530Z,51.71
2019-06-26T20:31:34.002Z,52.31
2019-06-26T20:34:02.444Z,52.42
2019-06-26T20:36:30.876Z,52.41
2019-06-26T20:38:59.301Z,52.70
2019-06-26T20:41:27.731Z,52.94
2019-06-26T20:43:56.256Z,52.72
2019-06-26T20:46:24.665Z,52.17
2019-06-26T20:48:53.072Z,52.82
2019-06-26T20:51:22.777Z,52.47
2019-06-26T20:53:52.245Z,52.18
2019-06-26T20:56:25.678Z,52.03
2019-06-26T20:58:54.449Z,51.96
2019-06-26T21:01:24.443Z,51.61
2019-06-26T21:03:53.384Z,52.14
2019-06-26T21:06:23.521Z,52.48
2019-06-26T21:08:54.442Z,51.45
2019-06-26T21:11:24.540Z,51.68
2019-06-26T21:13:54.519Z,51.00
2019-06-26T21:16:24.390Z,50.72
2019-06-26T21:18:54.785Z,50.84
2019-06-26T21:21:25.118Z,50.81
2019-06-26T21:23:55.457Z,50.99
2019-06-26T21:26:25.624Z,50.91
2019-06-26T21:28:56.701Z,50.69
2019-06-26T21:31:28.516Z,55.18
2019-06-26T21:33:59.530Z,53.16
2019-06-26T21:36:29.646Z,52.45
2019-06-26T21:39:00.634Z,52.05
2019-06-26T21:41:35.365Z,52.03
2019-06-26T21:44:05.662Z,51.94
2019-06-26T21:46:37.317Z,52.10
2019-06-26T21:49:07.963Z,52.03
2019-06-26T21:51:58.608Z,51.76
2019-06-26T21:54:31.136Z,51.79
2019-06-26T21:57:02.146Z,52.02
2019-06-26T21:59:33.614Z,51.68
2019-06-26T22:02:05.503Z,51.75
2019-06-26T22:04:38.198Z,51.80
2019-06-26T22:07:09.735Z,51.95
2019-06-26T22:09:41.738Z,52.00
2019-06-26T22:12:13.023Z,51.83
2019-06-26T22:14:44.039Z,51.82
2019-06-26T22:17:14.974Z,51.82
2019-06-26T22:19:46.427Z,51.64
2019-06-26T22:22:17.733Z,51.96
2019-06-26T22:24:47.803Z,51.75
2019-06-26T22:27:18.162Z,52.00
2019-06-26T22:29:49.089Z,52.03
2019-06-26T22:32:23.121Z,52.26
2019-06-26T22:34:53.932Z,52.11
2019-06-26T22:37:23.816Z,52.21
2019-06-26T22:39:54.063Z,52.33
2019-06-26T22:42:25.190Z,52.21
2019-06-26T22:44:55.272Z,52.29
2019-06-26T22:47:25.370Z,52.77
2019-06-26T22:49:56.244Z,52.33
2019-06-26T22:52:26.581Z,52.58
2019-06-26T22:54:58.250Z,52.54
2019-06-26T22:57:29.110Z,52.64
2019-06-26T22:59:59.866Z,52.57
2019-06-26T23:02:50.753Z,52.71
2019-06-26T23:05:20.974Z,52.28
2019-06-26T23:07:50.717Z,52.39
2019-06-26T23:10:21.582Z,52.35
2019-06-26T23:12:52.084Z,52.46
2019-06-26T23:15:22.146Z,52.31
2019-06-26T23:17:52.510Z,52.24
2019-06-26T23:20:22.778Z,52.29
2019-06-26T23:22:53.430Z,52.35
2019-06-26T23:25:23.755Z,52.26
2019-06-26T23:27:54.556Z,52.51
2019-06-26T23:30:24.260Z,52.40
2019-06-26T23:32:53.463Z,52.17
2019-06-26T23:35:23.802Z,52.39
2019-06-26T23:37:53.459Z,52.38
2019-06-26T23:40:24.508Z,52.40
2019-06-26T23:42:54.833Z,52.38
2019-06-26T23:45:24.939Z,52.31
2019-06-26T23:47:55.600Z,52.31
2019-06-26T23:50:26.070Z,52.33
2019-06-26T23:52:56.227Z,52.26
2019-06-26T23:55:26.419Z,52.30
2019-06-26T23:57:59.456Z,52.40
